Historyczne dane pomiarowe

Dodano dane terminowe – wersja testowa.

Dane z okresu 1951-2019

Wersja bazy: 1.34 [2019-03-16, lista zmian], aktualizacja planowana na 2019-04-15

Dane meteo z obszaru Polski uzyskane na podstawie danych udostępnionych przez Instytut Meteorologii i Gospodarki Wodnej – Państwowy Instytut Badawczy.

 

Wybierz Datę:    

       

TemperaturaWilgotnośćWiatrCiśnienieOpadyŚniegCzas trwania zjawisk
 Stacja t tx tn tng RH VA  wxwx mslp ppp RRR   cm mm wxwxwxwxwxwxwx
1981-02-25 -2.2 1.9 -6.0 -7.4 56.0- 0.0 4.0---- 0.0-- 3---------
1981-02-26 -3.9 0.4 -7.6 -8.5 57.0- 0.3 3.0---- 0.0------------
1981-02-27 -5.1 -1.4 -8.2 -9.5 60.0- 0.0 4.3---- 0.0------------
1981-02-28 -4.5 0.6 -8.1 -8.8 72.8- 0.0 2.0---- 0.0------------
1981-03-01 -1.2 6.7 -6.7 -8.9 62.8- 1.3 1.7---- 0.0------------
1981-03-02 1.4 6.8 -1.6 -3.7 71.0- 4.0 0.7---- 0.0------------
1981-03-03 0.0 3.7 -3.6 -5.1 85.5- 7.3 0.0---- 0.0------------
1981-03-04 2.6 6.0 -0.7 -2.7 82.3- 7.3 1.7---- 0.0------------
1981-03-05 -0.1 3.0 -1.5 -2.4 74.5- 5.0 1.3---- 0.3------------
1981-03-06 1.1 4.9 -1.2 -3.8 66.0- 4.0 1.3---- 0.0------------
1981-03-07 4.4 12.0 -1.2 -3.7 72.8- 5.7 1.3---- 0.0------------
1981-03-08 10.3 14.5 5.0 -0.5 58.5- 8.0 1.0---- 0.0------------
1981-03-09 10.8 15.9 6.8 1.3 71.8- 6.3 2.7---- 1.0------------
1981-03-10 9.4 12.6 6.2 0.5 73.5- 3.7 1.0---- 3.4------------
1981-03-11 5.7 12.8 2.3 -0.9 84.8- 8.0 2.3---- 15.8------------
1981-03-12 7.2 14.6 2.2 2.1 85.5- 8.0 1.7---- 8.5------------
1981-03-13 2.3 4.0 1.0 1.0 90.5- 7.7 1.0---- 1.2------------
1981-03-14 7.5 12.9 3.0 1.1 76.0- 4.0 2.7---- 0.0------------
1981-03-15 7.6 12.0 2.3 -1.9 60.8- 4.3 2.3---- 0.0------------
1981-03-16 5.4 11.0 -0.1 -3.0 72.8- 6.3 0.7---- 5.3------------
1981-03-17 2.9 7.5 1.8 1.5 87.8- 7.7 1.7---- 0.1------------
1981-03-18 0.6 4.4 -2.2 -4.3 90.5- 8.0 1.7---- 0.0------------
1981-03-19 1.6 5.1 -0.3 -0.2 84.5- 7.7 1.3---- 0.0------------
1981-03-20 6.3 11.9 1.5 -1.7 71.3- 5.0 1.3---- 0.0------------
1981-03-21 7.1 17.2 -1.0 -3.6 68.0- 1.0 1.7---- 0.0------------
1981-03-22 9.2 20.6 0.0 -3.4 62.8- 0.0 1.3---- 0.0------------
1981-03-23 9.8 15.9 2.0 -2.0 61.5- 3.7 1.7---- 0.1------------
1981-03-24 8.4 13.3 2.8 -1.0 82.3- 7.7 2.3---- 3.8------------
1981-03-25 11.2 15.5 7.4 5.0 73.0- 8.0 2.0---- 0.0------------
1981-03-26 16.2 23.0 11.0 7.0 69.0- 4.7 1.0---- 8.8------------
415.6 ms

 

Źródłem pochodzenia danych jest Instytut Meteorologii i Gospodarki Wodnej – Państwowy Instytut Badawczy. Dane Instytutu Meteorologii i Gospodarki Wodnej – Państwowego Instytutu Badawczego zostały przetworzone.

Dane źródłowe można odnaleźć na stronie https://dane.imgw.pl